sensor_id;sensor_type;location;lat;lon;timestamp;temperature;humidity
29501;DHT22;16450;50.288;10.966;2023-02-04T00:00:29;5.00;99.90
29501;DHT22;16450;50.288;10.966;2023-02-04T00:03:32;5.00;99.90
29501;DHT22;16450;50.288;10.966;2023-02-04T00:06:33;5.00;99.90
29501;DHT22;16450;50.288;10.966;2023-02-04T00:09:35;5.00;99.90
29501;DHT22;16450;50.288;10.966;2023-02-04T00:12:37;4.90;99.90
29501;DHT22;16450;50.288;10.966;2023-02-04T00:15:39;4.90;99.90
29501;DHT22;16450;50.288;10.966;2023-02-04T00:18:40;4.90;99.90
29501;DHT22;16450;50.288;10.966;2023-02-04T00:21:42;4.90;99.90
29501;DHT22;16450;50.288;10.966;2023-02-04T00:24:44;4.90;99.90
29501;DHT22;16450;50.288;10.966;2023-02-04T00:27:50;4.90;99.90
29501;DHT22;16450;50.288;10.966;2023-02-04T00:30:52;4.90;99.90
29501;DHT22;16450;50.288;10.966;2023-02-04T00:33:53;4.90;99.90
29501;DHT22;16450;50.288;10.966;2023-02-04T00:36:56;4.90;99.90
29501;DHT22;16450;50.288;10.966;2023-02-04T00:39:57;4.90;99.90
29501;DHT22;16450;50.288;10.966;2023-02-04T00:42:59;4.90;99.90
29501;DHT22;16450;50.288;10.966;2023-02-04T00:46:01;4.90;99.90
29501;DHT22;16450;50.288;10.966;2023-02-04T00:49:03;4.80;99.90
29501;DHT22;16450;50.288;10.966;2023-02-04T00:52:07;4.80;99.90
29501;DHT22;16450;50.288;10.966;2023-02-04T00:55:08;4.80;99.90
29501;DHT22;16450;50.288;10.966;2023-02-04T00:58:12;4.90;99.90
29501;DHT22;16450;50.288;10.966;2023-02-04T01:01:14;4.80;99.90
29501;DHT22;16450;50.288;10.966;2023-02-04T01:04:16;4.80;99.90
29501;DHT22;16450;50.288;10.966;2023-02-04T01:07:18;4.80;99.90
29501;DHT22;16450;50.288;10.966;2023-02-04T01:10:20;4.80;99.90
29501;DHT22;16450;50.288;10.966;2023-02-04T01:13:22;4.70;99.90
29501;DHT22;16450;50.288;10.966;2023-02-04T01:16:24;4.70;99.90
29501;DHT22;16450;50.288;10.966;2023-02-04T01:19:26;4.60;99.90
29501;DHT22;16450;50.288;10.966;2023-02-04T01:22:27;4.60;99.90
29501;DHT22;16450;50.288;10.966;2023-02-04T01:25:29;4.50;99.90
29501;DHT22;16450;50.288;10.966;2023-02-04T01:28:31;4.50;99.90
29501;DHT22;16450;50.288;10.966;2023-02-04T01:31:33;4.40;99.90
29501;DHT22;16450;50.288;10.966;2023-02-04T01:34:35;4.40;99.90
29501;DHT22;16450;50.288;10.966;2023-02-04T01:37:36;4.40;99.90
29501;DHT22;16450;50.288;10.966;2023-02-04T01:40:39;4.30;99.90
29501;DHT22;16450;50.288;10.966;2023-02-04T01:43:41;4.40;99.90
29501;DHT22;16450;50.288;10.966;2023-02-04T01:46:43;4.30;99.90
29501;DHT22;16450;50.288;10.966;2023-02-04T01:49:46;4.30;99.90
29501;DHT22;16450;50.288;10.966;2023-02-04T01:52:50;4.30;99.90
29501;DHT22;16450;50.288;10.966;2023-02-04T01:55:52;4.30;99.90
29501;DHT22;16450;50.288;10.966;2023-02-04T01:58:55;4.30;99.90
29501;DHT22;16450;50.288;10.966;2023-02-04T02:01:57;4.30;99.90
29501;DHT22;16450;50.288;10.966;2023-02-04T02:04:59;4.20;99.90
29501;DHT22;16450;50.288;10.966;2023-02-04T02:08:02;4.20;99.90
29501;DHT22;16450;50.288;10.966;2023-02-04T02:11:05;4.20;99.90
29501;DHT22;16450;50.288;10.966;2023-02-04T02:14:07;4.20;99.90
29501;DHT22;16450;50.288;10.966;2023-02-04T02:17:09;4.20;99.90
29501;DHT22;16450;50.288;10.966;2023-02-04T02:20:13;4.20;99.90
29501;DHT22;16450;50.288;10.966;2023-02-04T02:26:42;4.20;99.90
29501;DHT22;16450;50.288;10.966;2023-02-04T02:29:44;4.20;99.90
29501;DHT22;16450;50.288;10.966;2023-02-04T02:32:46;4.20;99.90
29501;DHT22;16450;50.288;10.966;2023-02-04T02:35:48;4.20;99.90
29501;DHT22;16450;50.288;10.966;2023-02-04T02:38:50;4.20;99.90
29501;DHT22;16450;50.288;10.966;2023-02-04T02:41:53;4.20;99.90
29501;DHT22;16450;50.288;10.966;2023-02-04T02:44:55;4.20;99.90
29501;DHT22;16450;50.288;10.966;2023-02-04T02:48:00;4.10;99.90
29501;DHT22;16450;50.288;10.966;2023-02-04T02:51:03;4.10;99.90
29501;DHT22;16450;50.288;10.966;2023-02-04T02:54:20;4.10;99.90
29501;DHT22;16450;50.288;10.966;2023-02-04T02:57:23;4.10;99.90
29501;DHT22;16450;50.288;10.966;2023-02-04T03:00:27;4.10;99.90
29501;DHT22;16450;50.288;10.966;2023-02-04T03:03:33;4.00;99.90
29501;DHT22;16450;50.288;10.966;2023-02-04T03:06:36;4.00;99.90
29501;DHT22;16450;50.288;10.966;2023-02-04T03:09:37;4.00;99.90
29501;DHT22;16450;50.288;10.966;2023-02-04T03:12:39;4.00;99.90
29501;DHT22;16450;50.288;10.966;2023-02-04T03:15:42;3.90;99.90
29501;DHT22;16450;50.288;10.966;2023-02-04T03:18:44;4.00;99.90
29501;DHT22;16450;50.288;10.966;2023-02-04T03:21:46;3.90;99.90
29501;DHT22;16450;50.288;10.966;2023-02-04T03:24:48;3.90;99.90
29501;DHT22;16450;50.288;10.966;2023-02-04T03:27:51;3.90;99.90
29501;DHT22;16450;50.288;10.966;2023-02-04T03:30:54;3.90;99.90
29501;DHT22;16450;50.288;10.966;2023-02-04T03:33:57;3.90;99.90
29501;DHT22;16450;50.288;10.966;2023-02-04T03:36:58;3.90;99.90
29501;DHT22;16450;50.288;10.966;2023-02-04T03:40:00;3.90;99.90
29501;DHT22;16450;50.288;10.966;2023-02-04T03:43:02;3.90;99.90
29501;DHT22;16450;50.288;10.966;2023-02-04T03:46:04;3.80;99.90
29501;DHT22;16450;50.288;10.966;2023-02-04T03:49:06;3.80;99.90
29501;DHT22;16450;50.288;10.966;2023-02-04T03:52:08;3.70;99.90
29501;DHT22;16450;50.288;10.966;2023-02-04T03:55:09;3.70;99.90
29501;DHT22;16450;50.288;10.966;2023-02-04T03:58:11;3.60;99.90
29501;DHT22;16450;50.288;10.966;2023-02-04T04:01:13;3.60;99.90
29501;DHT22;16450;50.288;10.966;2023-02-04T04:04:15;3.60;99.90
29501;DHT22;16450;50.288;10.966;2023-02-04T04:07:17;3.50;99.90
29501;DHT22;16450;50.288;10.966;2023-02-04T04:10:19;3.50;99.90
29501;DHT22;16450;50.288;10.966;2023-02-04T04:13:21;3.40;99.90
29501;DHT22;16450;50.288;10.966;2023-02-04T04:16:22;3.40;99.90
29501;DHT22;16450;50.288;10.966;2023-02-04T04:19:24;3.40;99.90
29501;DHT22;16450;50.288;10.966;2023-02-04T04:22:26;3.40;99.90
29501;DHT22;16450;50.288;10.966;2023-02-04T04:25:28;3.40;99.90
29501;DHT22;16450;50.288;10.966;2023-02-04T04:28:30;3.40;99.90
29501;DHT22;16450;50.288;10.966;2023-02-04T04:31:31;3.40;99.90
29501;DHT22;16450;50.288;10.966;2023-02-04T04:34:34;3.30;99.90
29501;DHT22;16450;50.288;10.966;2023-02-04T04:37:35;3.20;99.90
29501;DHT22;16450;50.288;10.966;2023-02-04T04:40:37;3.10;99.90
29501;DHT22;16450;50.288;10.966;2023-02-04T04:43:39;3.00;99.90
29501;DHT22;16450;50.288;10.966;2023-02-04T04:46:41;2.90;99.90
29501;DHT22;16450;50.288;10.966;2023-02-04T04:49:43;2.80;99.90
29501;DHT22;16450;50.288;10.966;2023-02-04T04:52:44;2.70;99.90
29501;DHT22;16450;50.288;10.966;2023-02-04T04:55:46;2.60;99.90
29501;DHT22;16450;50.288;10.966;2023-02-04T04:58:48;2.60;99.90
29501;DHT22;16450;50.288;10.966;2023-02-04T05:01:50;2.50;99.90
29501;DHT22;16450;50.288;10.966;2023-02-04T05:04:51;2.50;99.90
29501;DHT22;16450;50.288;10.966;2023-02-04T05:07:54;2.40;99.90
29501;DHT22;16450;50.288;10.966;2023-02-04T05:10:55;2.40;99.90
29501;DHT22;16450;50.288;10.966;2023-02-04T05:13:57;2.40;99.90
29501;DHT22;16450;50.288;10.966;2023-02-04T05:16:59;2.40;99.90
29501;DHT22;16450;50.288;10.966;2023-02-04T05:20:01;2.40;99.90
29501;DHT22;16450;50.288;10.966;2023-02-04T05:23:02;2.40;99.90
29501;DHT22;16450;50.288;10.966;2023-02-04T05:26:06;2.40;99.90
29501;DHT22;16450;50.288;10.966;2023-02-04T05:29:08;2.40;99.90
29501;DHT22;16450;50.288;10.966;2023-02-04T05:32:11;2.40;99.90
29501;DHT22;16450;50.288;10.966;2023-02-04T05:35:13;2.40;99.90
29501;DHT22;16450;50.288;10.966;2023-02-04T05:38:15;2.40;99.90
29501;DHT22;16450;50.288;10.966;2023-02-04T05:41:16;2.40;99.90
29501;DHT22;16450;50.288;10.966;2023-02-04T05:44:18;2.40;99.90
29501;DHT22;16450;50.288;10.966;2023-02-04T05:47:20;2.40;99.90
29501;DHT22;16450;50.288;10.966;2023-02-04T05:50:22;2.40;99.90
29501;DHT22;16450;50.288;10.966;2023-02-04T05:53:23;2.40;99.90
29501;DHT22;16450;50.288;10.966;2023-02-04T05:56:26;2.40;99.90
29501;DHT22;16450;50.288;10.966;2023-02-04T05:59:28;2.30;99.90
29501;DHT22;16450;50.288;10.966;2023-02-04T06:02:30;2.30;99.90
29501;DHT22;16450;50.288;10.966;2023-02-04T06:05:32;2.30;99.90
29501;DHT22;16450;50.288;10.966;2023-02-04T06:08:34;2.30;99.90
29501;DHT22;16450;50.288;10.966;2023-02-04T06:11:35;2.20;99.90
29501;DHT22;16450;50.288;10.966;2023-02-04T06:14:37;2.20;99.90
29501;DHT22;16450;50.288;10.966;2023-02-04T06:17:39;2.20;99.90
29501;DHT22;16450;50.288;10.966;2023-02-04T06:20:41;2.10;99.90
29501;DHT22;16450;50.288;10.966;2023-02-04T06:23:43;2.10;99.90
29501;DHT22;16450;50.288;10.966;2023-02-04T06:26:44;2.00;99.90
29501;DHT22;16450;50.288;10.966;2023-02-04T06:29:46;2.00;99.90
29501;DHT22;16450;50.288;10.966;2023-02-04T06:32:48;2.00;99.90
29501;DHT22;16450;50.288;10.966;2023-02-04T06:35:50;2.00;99.90
29501;DHT22;16450;50.288;10.966;2023-02-04T06:38:51;2.00;99.90
29501;DHT22;16450;50.288;10.966;2023-02-04T06:41:53;2.10;99.90
29501;DHT22;16450;50.288;10.966;2023-02-04T06:44:55;2.10;99.90
29501;DHT22;16450;50.288;10.966;2023-02-04T06:47:57;2.10;99.90
29501;DHT22;16450;50.288;10.966;2023-02-04T06:50:59;2.10;99.90
29501;DHT22;16450;50.288;10.966;2023-02-04T06:54:01;2.10;99.90
29501;DHT22;16450;50.288;10.966;2023-02-04T06:57:03;2.20;99.90
29501;DHT22;16450;50.288;10.966;2023-02-04T07:00:09;2.20;99.90
29501;DHT22;16450;50.288;10.966;2023-02-04T07:03:11;2.20;99.90
29501;DHT22;16450;50.288;10.966;2023-02-04T07:06:13;2.00;99.90
29501;DHT22;16450;50.288;10.966;2023-02-04T07:09:15;2.20;99.90
29501;DHT22;16450;50.288;10.966;2023-02-04T07:12:17;2.20;99.90
29501;DHT22;16450;50.288;10.966;2023-02-04T07:15:19;2.20;99.90
29501;DHT22;16450;50.288;10.966;2023-02-04T07:18:21;2.30;99.90
29501;DHT22;16450;50.288;10.966;2023-02-04T07:21:25;2.30;99.90
29501;DHT22;16450;50.288;10.966;2023-02-04T07:24:29;2.30;99.90
29501;DHT22;16450;50.288;10.966;2023-02-04T07:27:31;2.30;99.90
29501;DHT22;16450;50.288;10.966;2023-02-04T07:30:33;2.40;99.90
29501;DHT22;16450;50.288;10.966;2023-02-04T07:33:35;2.30;99.90
29501;DHT22;16450;50.288;10.966;2023-02-04T07:36:37;2.40;99.90
29501;DHT22;16450;50.288;10.966;2023-02-04T07:39:40;2.40;99.90
29501;DHT22;16450;50.288;10.966;2023-02-04T07:42:42;2.30;99.90
29501;DHT22;16450;50.288;10.966;2023-02-04T07:45:43;2.30;99.90
29501;DHT22;16450;50.288;10.966;2023-02-04T07:48:45;2.30;99.90
29501;DHT22;16450;50.288;10.966;2023-02-04T07:51:47;2.30;99.90
29501;DHT22;16450;50.288;10.966;2023-02-04T07:54:49;2.20;99.90
29501;DHT22;16450;50.288;10.966;2023-02-04T07:57:53;2.20;99.90
29501;DHT22;16450;50.288;10.966;2023-02-04T08:00:56;2.10;99.90
29501;DHT22;16450;50.288;10.966;2023-02-04T08:03:58;2.30;99.90
29501;DHT22;16450;50.288;10.966;2023-02-04T08:07:00;2.20;99.90
29501;DHT22;16450;50.288;10.966;2023-02-04T08:10:04;2.30;99.90
29501;DHT22;16450;50.288;10.966;2023-02-04T08:13:06;2.30;99.90
29501;DHT22;16450;50.288;10.966;2023-02-04T08:16:08;2.40;99.90
29501;DHT22;16450;50.288;10.966;2023-02-04T08:19:12;2.40;99.90
29501;DHT22;16450;50.288;10.966;2023-02-04T08:22:19;2.50;99.90
29501;DHT22;16450;50.288;10.966;2023-02-04T08:25:21;2.50;99.90
29501;DHT22;16450;50.288;10.966;2023-02-04T08:28:23;2.60;99.90
29501;DHT22;16450;50.288;10.966;2023-02-04T08:31:25;2.60;99.90
29501;DHT22;16450;50.288;10.966;2023-02-04T08:34:27;2.70;99.90
29501;DHT22;16450;50.288;10.966;2023-02-04T08:37:29;2.70;99.90
29501;DHT22;16450;50.288;10.966;2023-02-04T08:40:30;2.70;99.90
29501;DHT22;16450;50.288;10.966;2023-02-04T08:43:32;2.80;99.90
29501;DHT22;16450;50.288;10.966;2023-02-04T08:46:34;2.80;99.90
29501;DHT22;16450;50.288;10.966;2023-02-04T08:49:36;2.90;99.90
29501;DHT22;16450;50.288;10.966;2023-02-04T08:52:38;2.90;99.90
29501;DHT22;16450;50.288;10.966;2023-02-04T08:55:40;2.90;99.90
29501;DHT22;16450;50.288;10.966;2023-02-04T08:58:43;3.00;99.90
29501;DHT22;16450;50.288;10.966;2023-02-04T09:01:45;3.00;99.90
29501;DHT22;16450;50.288;10.966;2023-02-04T09:04:51;3.10;99.90
29501;DHT22;16450;50.288;10.966;2023-02-04T09:07:54;3.20;99.90
29501;DHT22;16450;50.288;10.966;2023-02-04T09:10:56;3.30;99.90
29501;DHT22;16450;50.288;10.966;2023-02-04T09:13:58;3.40;99.90
29501;DHT22;16450;50.288;10.966;2023-02-04T09:17:00;3.40;99.90
29501;DHT22;16450;50.288;10.966;2023-02-04T09:20:02;3.40;99.90
29501;DHT22;16450;50.288;10.966;2023-02-04T09:23:04;3.40;99.90
29501;DHT22;16450;50.288;10.966;2023-02-04T09:26:09;3.40;99.90
29501;DHT22;16450;50.288;10.966;2023-02-04T09:29:11;3.40;99.90
29501;DHT22;16450;50.288;10.966;2023-02-04T09:32:13;3.40;99.90
29501;DHT22;16450;50.288;10.966;2023-02-04T09:35:14;3.40;99.90
29501;DHT22;16450;50.288;10.966;2023-02-04T09:38:16;3.40;99.90
29501;DHT22;16450;50.288;10.966;2023-02-04T09:41:18;3.40;99.90
29501;DHT22;16450;50.288;10.966;2023-02-04T09:44:22;3.50;99.90
29501;DHT22;16450;50.288;10.966;2023-02-04T09:47:26;3.40;99.90
29501;DHT22;16450;50.288;10.966;2023-02-04T09:50:29;3.40;99.90
29501;DHT22;16450;50.288;10.966;2023-02-04T09:53:35;3.40;99.90
29501;DHT22;16450;50.288;10.966;2023-02-04T09:56:39;3.50;99.90
29501;DHT22;16450;50.288;10.966;2023-02-04T09:59:42;3.50;99.90
29501;DHT22;16450;50.288;10.966;2023-02-04T10:02:45;3.50;99.90
29501;DHT22;16450;50.288;10.966;2023-02-04T10:05:47;3.50;99.90
29501;DHT22;16450;50.288;10.966;2023-02-04T10:08:51;3.60;99.90
29501;DHT22;16450;50.288;10.966;2023-02-04T10:11:53;3.60;99.90
29501;DHT22;16450;50.288;10.966;2023-02-04T10:14:55;3.60;99.90
29501;DHT22;16450;50.288;10.966;2023-02-04T10:18:02;3.70;99.90
29501;DHT22;16450;50.288;10.966;2023-02-04T10:21:17;3.80;99.90
29501;DHT22;16450;50.288;10.966;2023-02-04T10:24:22;3.80;99.90
29501;DHT22;16450;50.288;10.966;2023-02-04T10:27:27;3.90;99.90
29501;DHT22;16450;50.288;10.966;2023-02-04T10:30:36;4.10;99.90
29501;DHT22;16450;50.288;10.966;2023-02-04T10:33:38;4.20;99.90
29501;DHT22;16450;50.288;10.966;2023-02-04T10:36:46;4.40;99.90
29501;DHT22;16450;50.288;10.966;2023-02-04T10:39:48;4.50;99.90
29501;DHT22;16450;50.288;10.966;2023-02-04T10:42:50;4.60;99.90
29501;DHT22;16450;50.288;10.966;2023-02-04T10:46:03;4.60;99.90
29501;DHT22;16450;50.288;10.966;2023-02-04T10:52:19;4.60;99.40
29501;DHT22;16450;50.288;10.966;2023-02-04T10:55:23;4.60;99.90
29501;DHT22;16450;50.288;10.966;2023-02-04T10:58:27;4.50;99.90
29501;DHT22;16450;50.288;10.966;2023-02-04T11:01:30;4.50;99.90
29501;DHT22;16450;50.288;10.966;2023-02-04T11:04:32;4.60;99.90
29501;DHT22;16450;50.288;10.966;2023-02-04T11:07:34;4.50;99.90
29501;DHT22;16450;50.288;10.966;2023-02-04T11:10:36;4.40;99.90
29501;DHT22;16450;50.288;10.966;2023-02-04T11:13:41;4.50;99.90
29501;DHT22;16450;50.288;10.966;2023-02-04T11:16:47;4.40;99.70
29501;DHT22;16450;50.288;10.966;2023-02-04T11:19:49;4.40;99.30
29501;DHT22;16450;50.288;10.966;2023-02-04T11:22:51;4.40;99.90
29501;DHT22;16450;50.288;10.966;2023-02-04T11:29:32;4.40;98.60
29501;DHT22;16450;50.288;10.966;2023-02-04T11:32:39;4.30;97.60
29501;DHT22;16450;50.288;10.966;2023-02-04T11:36:03;4.30;99.70
29501;DHT22;16450;50.288;10.966;2023-02-04T11:39:15;4.20;98.20
29501;DHT22;16450;50.288;10.966;2023-02-04T11:42:23;4.20;98.50
29501;DHT22;16450;50.288;10.966;2023-02-04T11:45:33;4.20;99.40
29501;DHT22;16450;50.288;10.966;2023-02-04T11:48:35;4.10;99.00
29501;DHT22;16450;50.288;10.966;2023-02-04T11:51:37;4.10;99.80
29501;DHT22;16450;50.288;10.966;2023-02-04T11:54:39;4.10;99.90
29501;DHT22;16450;50.288;10.966;2023-02-04T11:57:42;4.10;99.90
29501;DHT22;16450;50.288;10.966;2023-02-04T12:00:45;4.10;99.90
29501;DHT22;16450;50.288;10.966;2023-02-04T12:03:57;4.20;99.90
29501;DHT22;16450;50.288;10.966;2023-02-04T12:07:03;4.20;99.00
29501;DHT22;16450;50.288;10.966;2023-02-04T12:13:17;4.30;99.50
29501;DHT22;16450;50.288;10.966;2023-02-04T12:16:19;4.40;99.90
29501;DHT22;16450;50.288;10.966;2023-02-04T12:19:21;4.40;99.90
29501;DHT22;16450;50.288;10.966;2023-02-04T12:22:23;4.50;99.90
29501;DHT22;16450;50.288;10.966;2023-02-04T12:25:25;4.60;99.90
29501;DHT22;16450;50.288;10.966;2023-02-04T12:28:30;4.60;99.90
29501;DHT22;16450;50.288;10.966;2023-02-04T12:31:32;4.70;99.90
29501;DHT22;16450;50.288;10.966;2023-02-04T12:34:34;4.80;99.90
29501;DHT22;16450;50.288;10.966;2023-02-04T12:37:36;4.90;99.90
29501;DHT22;16450;50.288;10.966;2023-02-04T12:40:38;5.00;99.90
29501;DHT22;16450;50.288;10.966;2023-02-04T12:43:40;5.00;99.90
29501;DHT22;16450;50.288;10.966;2023-02-04T12:46:42;5.00;99.90
29501;DHT22;16450;50.288;10.966;2023-02-04T12:49:43;5.00;99.90
29501;DHT22;16450;50.288;10.966;2023-02-04T12:52:57;5.00;99.90
29501;DHT22;16450;50.288;10.966;2023-02-04T12:55:59;5.00;99.20
29501;DHT22;16450;50.288;10.966;2023-02-04T12:59:01;5.10;99.90
29501;DHT22;16450;50.288;10.966;2023-02-04T13:02:03;5.10;99.80
29501;DHT22;16450;50.288;10.966;2023-02-04T13:05:05;5.00;99.70
29501;DHT22;16450;50.288;10.966;2023-02-04T13:08:07;5.00;99.60
29501;DHT22;16450;50.288;10.966;2023-02-04T13:11:09;5.00;99.60
29501;DHT22;16450;50.288;10.966;2023-02-04T13:14:11;5.00;99.40
29501;DHT22;16450;50.288;10.966;2023-02-04T13:17:12;5.00;99.40
29501;DHT22;16450;50.288;10.966;2023-02-04T13:20:14;5.00;99.70
29501;DHT22;16450;50.288;10.966;2023-02-04T13:23:16;5.00;99.80
29501;DHT22;16450;50.288;10.966;2023-02-04T13:26:18;5.10;99.90
29501;DHT22;16450;50.288;10.966;2023-02-04T13:29:20;5.10;99.90
29501;DHT22;16450;50.288;10.966;2023-02-04T13:32:23;5.10;99.90
29501;DHT22;16450;50.288;10.966;2023-02-04T13:35:25;5.10;99.80
29501;DHT22;16450;50.288;10.966;2023-02-04T13:38:26;5.10;99.80
29501;DHT22;16450;50.288;10.966;2023-02-04T13:41:28;5.10;99.80
29501;DHT22;16450;50.288;10.966;2023-02-04T13:44:30;5.10;99.60
29501;DHT22;16450;50.288;10.966;2023-02-04T13:47:32;5.10;99.70
29501;DHT22;16450;50.288;10.966;2023-02-04T13:50:34;5.20;99.60
29501;DHT22;16450;50.288;10.966;2023-02-04T13:53:36;5.20;99.40
29501;DHT22;16450;50.288;10.966;2023-02-04T13:56:37;5.10;99.30
29501;DHT22;16450;50.288;10.966;2023-02-04T13:59:41;5.10;99.40
29501;DHT22;16450;50.288;10.966;2023-02-04T14:02:43;5.10;99.40
29501;DHT22;16450;50.288;10.966;2023-02-04T14:05:45;5.10;99.50
29501;DHT22;16450;50.288;10.966;2023-02-04T14:08:47;5.10;99.50
29501;DHT22;16450;50.288;10.966;2023-02-04T14:11:49;5.10;99.40
29501;DHT22;16450;50.288;10.966;2023-02-04T14:14:50;5.20;99.40
29501;DHT22;16450;50.288;10.966;2023-02-04T14:17:52;5.10;99.30
29501;DHT22;16450;50.288;10.966;2023-02-04T14:20:54;5.20;99.40
29501;DHT22;16450;50.288;10.966;2023-02-04T14:23:56;5.20;99.30
29501;DHT22;16450;50.288;10.966;2023-02-04T14:26:58;5.20;99.30
29501;DHT22;16450;50.288;10.966;2023-02-04T14:30:01;5.20;99.50
29501;DHT22;16450;50.288;10.966;2023-02-04T14:33:03;5.20;99.20
29501;DHT22;16450;50.288;10.966;2023-02-04T14:36:05;5.20;99.50
29501;DHT22;16450;50.288;10.966;2023-02-04T14:39:07;5.20;99.20
29501;DHT22;16450;50.288;10.966;2023-02-04T14:42:09;5.20;99.20
29501;DHT22;16450;50.288;10.966;2023-02-04T14:45:12;5.20;99.20
29501;DHT22;16450;50.288;10.966;2023-02-04T14:48:14;5.20;99.10
29501;DHT22;16450;50.288;10.966;2023-02-04T14:51:16;5.20;99.40
29501;DHT22;16450;50.288;10.966;2023-02-04T14:54:18;5.20;99.30
29501;DHT22;16450;50.288;10.966;2023-02-04T14:57:19;5.20;99.20
29501;DHT22;16450;50.288;10.966;2023-02-04T15:00:21;5.10;99.00
29501;DHT22;16450;50.288;10.966;2023-02-04T15:03:24;5.10;98.90
29501;DHT22;16450;50.288;10.966;2023-02-04T15:06:25;5.10;98.90
29501;DHT22;16450;50.288;10.966;2023-02-04T15:09:28;5.10;98.90
29501;DHT22;16450;50.288;10.966;2023-02-04T15:12:30;5.00;98.70
29501;DHT22;16450;50.288;10.966;2023-02-04T15:15:31;5.00;98.80
29501;DHT22;16450;50.288;10.966;2023-02-04T15:18:33;4.90;98.70
29501;DHT22;16450;50.288;10.966;2023-02-04T15:21:35;4.90;98.70
29501;DHT22;16450;50.288;10.966;2023-02-04T15:24:37;4.80;98.80
29501;DHT22;16450;50.288;10.966;2023-02-04T15:27:39;4.80;98.70
29501;DHT22;16450;50.288;10.966;2023-02-04T15:30:41;4.80;98.80
29501;DHT22;16450;50.288;10.966;2023-02-04T15:33:43;4.70;98.60
29501;DHT22;16450;50.288;10.966;2023-02-04T15:36:44;4.70;98.60
29501;DHT22;16450;50.288;10.966;2023-02-04T15:39:46;4.70;98.50
29501;DHT22;16450;50.288;10.966;2023-02-04T15:42:49;4.60;98.30
29501;DHT22;16450;50.288;10.966;2023-02-04T15:45:52;4.50;98.20
29501;DHT22;16450;50.288;10.966;2023-02-04T15:48:54;4.50;98.20
29501;DHT22;16450;50.288;10.966;2023-02-04T15:51:56;4.40;98.40
29501;DHT22;16450;50.288;10.966;2023-02-04T15:54:58;4.30;98.00
29501;DHT22;16450;50.288;10.966;2023-02-04T15:58:00;4.30;97.90
29501;DHT22;16450;50.288;10.966;2023-02-04T16:01:02;4.20;97.70
29501;DHT22;16450;50.288;10.966;2023-02-04T16:04:04;4.10;97.70
29501;DHT22;16450;50.288;10.966;2023-02-04T16:07:05;4.00;97.70
29501;DHT22;16450;50.288;10.966;2023-02-04T16:10:09;3.90;97.80
29501;DHT22;16450;50.288;10.966;2023-02-04T16:13:11;3.90;97.70
29501;DHT22;16450;50.288;10.966;2023-02-04T16:16:13;3.80;97.80
29501;DHT22;16450;50.288;10.966;2023-02-04T16:19:15;3.70;97.80
29501;DHT22;16450;50.288;10.966;2023-02-04T16:22:17;3.70;97.70
29501;DHT22;16450;50.288;10.966;2023-02-04T16:25:19;3.60;97.70
29501;DHT22;16450;50.288;10.966;2023-02-04T16:28:22;3.60;97.70
29501;DHT22;16450;50.288;10.966;2023-02-04T16:31:24;3.50;97.70
29501;DHT22;16450;50.288;10.966;2023-02-04T16:34:26;3.40;97.70
29501;DHT22;16450;50.288;10.966;2023-02-04T16:37:30;3.40;97.80
29501;DHT22;16450;50.288;10.966;2023-02-04T16:40:32;3.40;97.70
29501;DHT22;16450;50.288;10.966;2023-02-04T16:43:35;3.30;97.70
29501;DHT22;16450;50.288;10.966;2023-02-04T16:46:37;3.30;97.70
29501;DHT22;16450;50.288;10.966;2023-02-04T16:49:38;3.20;97.60
29501;DHT22;16450;50.288;10.966;2023-02-04T16:52:40;3.20;97.50
29501;DHT22;16450;50.288;10.966;2023-02-04T16:55:43;3.10;97.30
29501;DHT22;16450;50.288;10.966;2023-02-04T16:58:45;3.00;97.00
29501;DHT22;16450;50.288;10.966;2023-02-04T17:01:47;2.90;97.00
29501;DHT22;16450;50.288;10.966;2023-02-04T17:04:49;2.80;96.90
29501;DHT22;16450;50.288;10.966;2023-02-04T17:07:51;2.70;96.70
29501;DHT22;16450;50.288;10.966;2023-02-04T17:10:53;2.70;96.70
29501;DHT22;16450;50.288;10.966;2023-02-04T17:14:13;2.50;96.60
29501;DHT22;16450;50.288;10.966;2023-02-04T17:17:18;2.40;96.40
29501;DHT22;16450;50.288;10.966;2023-02-04T17:20:19;2.30;96.40
29501;DHT22;16450;50.288;10.966;2023-02-04T17:23:24;2.30;96.40
29501;DHT22;16450;50.288;10.966;2023-02-04T17:26:26;2.20;96.30
29501;DHT22;16450;50.288;10.966;2023-02-04T17:29:28;2.10;96.30
29501;DHT22;16450;50.288;10.966;2023-02-04T17:32:29;2.00;96.40
29501;DHT22;16450;50.288;10.966;2023-02-04T17:35:31;1.90;96.40
29501;DHT22;16450;50.288;10.966;2023-02-04T17:38:34;1.80;96.40
29501;DHT22;16450;50.288;10.966;2023-02-04T17:41:35;1.70;96.40
29501;DHT22;16450;50.288;10.966;2023-02-04T17:44:37;1.60;96.40
29501;DHT22;16450;50.288;10.966;2023-02-04T17:47:39;1.50;96.30
29501;DHT22;16450;50.288;10.966;2023-02-04T17:50:41;1.50;96.30
29501;DHT22;16450;50.288;10.966;2023-02-04T17:53:44;1.40;96.60
29501;DHT22;16450;50.288;10.966;2023-02-04T17:56:45;1.30;96.40
29501;DHT22;16450;50.288;10.966;2023-02-04T17:59:47;1.30;96.40
29501;DHT22;16450;50.288;10.966;2023-02-04T18:02:50;1.20;96.50
29501;DHT22;16450;50.288;10.966;2023-02-04T18:05:55;1.10;96.40
29501;DHT22;16450;50.288;10.966;2023-02-04T18:08:57;1.10;96.60
29501;DHT22;16450;50.288;10.966;2023-02-04T18:12:10;1.00;96.60
29501;DHT22;16450;50.288;10.966;2023-02-04T18:15:25;0.90;96.50
29501;DHT22;16450;50.288;10.966;2023-02-04T18:18:35;0.90;96.20
29501;DHT22;16450;50.288;10.966;2023-02-04T18:21:38;0.80;96.50
29501;DHT22;16450;50.288;10.966;2023-02-04T18:24:41;0.80;96.60
29501;DHT22;16450;50.288;10.966;2023-02-04T18:27:45;0.70;96.50
29501;DHT22;16450;50.288;10.966;2023-02-04T18:30:50;0.70;96.70
29501;DHT22;16450;50.288;10.966;2023-02-04T18:33:54;0.60;96.40
29501;DHT22;16450;50.288;10.966;2023-02-04T18:36:56;0.60;96.50
29501;DHT22;16450;50.288;10.966;2023-02-04T18:43:15;0.50;96.20
29501;DHT22;16450;50.288;10.966;2023-02-04T18:46:23;0.40;96.40
29501;DHT22;16450;50.288;10.966;2023-02-04T18:49:28;0.40;96.30
29501;DHT22;16450;50.288;10.966;2023-02-04T18:52:35;0.30;96.30
29501;DHT22;16450;50.288;10.966;2023-02-04T18:56:13;0.30;96.20
29501;DHT22;16450;50.288;10.966;2023-02-04T18:59:12;0.20;96.30
29501;DHT22;16450;50.288;10.966;2023-02-04T19:05:37;0.10;96.30
29501;DHT22;16450;50.288;10.966;2023-02-04T19:08:44;0.10;96.40
29501;DHT22;16450;50.288;10.966;2023-02-04T19:11:48;0.00;96.50
29501;DHT22;16450;50.288;10.966;2023-02-04T19:14:51;0.00;96.60
29501;DHT22;16450;50.288;10.966;2023-02-04T19:17:56;-0.10;96.70
29501;DHT22;16450;50.288;10.966;2023-02-04T19:21:20;-0.10;96.60
29501;DHT22;16450;50.288;10.966;2023-02-04T19:24:26;-0.10;96.40
29501;DHT22;16450;50.288;10.966;2023-02-04T19:27:31;-0.20;96.70
29501;DHT22;16450;50.288;10.966;2023-02-04T19:30:42;-0.20;96.80
29501;DHT22;16450;50.288;10.966;2023-02-04T19:33:44;-0.20;96.90